Terminal Aerodrome Forecast
Issued by NWS North Platte, NE

Home | Current Version | Previous Version | Text Only | Print | Product List | Glossary On
Versions: 1 2 3 4 5 6 7 8 9 10 11
000
FTUS43 KLBF 251120
TAFVTN
TAF
KVTN 251120Z 2512/2612 19006KT P6SM SKC
     FM251700 17015G24KT P6SM SCT100
     FM260200 15011KT P6SM SCT090 BKN200 PROB30 2604/2608 5SM TSRA
      BKN070CB=

USA.gov is the U.S. government's official web portal to all federal, state and local government web resources and services.